Terminal Aerodrome Forecast
Issued by NWS

Home | Current Version | Previous Version | Text Only | Print | Product List | Glossary On
Versions: 1 2 3 4 5 6 7 8 9 10 11 12 13 14 15 16 17 18 19 20 21
000
FTUS43 KLSX 161100
TAFUIN
TAF
KUIN 161134Z 1612/1712 02004KT P6SM SKC
      TEMPO 1612/1613 3SM BR
     FM161500 04004KT P6SM SCT030
     FM162300 VRB03KT P6SM SKC=

USA.gov is the U.S. government's official web portal to all federal, state and local government web resources and services.